OAL638 LCPH-LGAV
Flight info
| Callsign | OAL638 |
|---|---|
| Flight time | N/A |
| Altitude | 36000 |
| Route | KEA UL995 RDS UM601 EVENO M601 DASNI M32 TOBAL |
| Aircraft | B738/M-VGDW/C |
Departure
| Time | 2026-04-14 14:45 |
|---|---|
| Airport | Paphos International Airport (LCPH) |
Arrival
| Time | N/A |
|---|---|
| Airport | Athens Eleftherios Venizelos International Airport (LGAV) |
| Time | Latitude | Longitude | Altitude | Speed | Heading |
|---|---|---|---|---|---|
| 2026-04-14 14:29 | 34.71309 | 32.48664 | 45 ft | 0 kts | 153° |
| 2026-04-14 14:32 | 34.71316 | 32.48660 | 45 ft | 3 kts | 153° |
| 2026-04-14 14:33 | 34.71335 | 32.48648 | 43 ft | 3 kts | 153° |
| 2026-04-14 14:33 | 34.71353 | 32.48637 | 45 ft | 3 kts | 153° |
| 2026-04-14 14:33 | 34.71372 | 32.48629 | 43 ft | 3 kts | 191° |
| 2026-04-14 14:33 | 34.71391 | 32.48638 | 43 ft | 3 kts | 208° |
| 2026-04-14 14:34 | 34.71399 | 32.48645 | 45 ft | 0 kts | 232° |
| 2026-04-14 14:38 | 34.71393 | 32.48636 | 43 ft | 6 kts | 234° |
| 2026-04-14 14:39 | 34.71356 | 32.48543 | 45 ft | 16 kts | 246° |
| 2026-04-14 14:39 | 34.71362 | 32.48416 | 43 ft | 15 kts | 291° |
| 2026-04-14 14:39 | 34.71399 | 32.48297 | 42 ft | 15 kts | 292° |
| 2026-04-14 14:39 | 34.71485 | 32.48277 | 45 ft | 14 kts | 19° |
| 2026-04-14 14:40 | 34.71584 | 32.48319 | 45 ft | 18 kts | 20° |
| 2026-04-14 14:40 | 34.71720 | 32.48380 | 45 ft | 22 kts | 20° |
| 2026-04-14 14:40 | 34.71862 | 32.48444 | 45 ft | 22 kts | 20° |
| 2026-04-14 14:40 | 34.71991 | 32.48467 | 43 ft | 19 kts | 321° |
| 2026-04-14 14:41 | 34.72042 | 32.48326 | 44 ft | 18 kts | 290° |
| 2026-04-14 14:41 | 34.72084 | 32.48187 | 45 ft | 17 kts | 290° |
| 2026-04-14 14:41 | 34.72125 | 32.48051 | 45 ft | 17 kts | 290° |
| 2026-04-14 14:41 | 34.72165 | 32.47921 | 43 ft | 16 kts | 290° |
| 2026-04-14 14:42 | 34.72204 | 32.47796 | 45 ft | 16 kts | 291° |
| 2026-04-14 14:42 | 34.72246 | 32.47660 | 45 ft | 20 kts | 290° |
| 2026-04-14 14:42 | 34.72300 | 32.47485 | 44 ft | 22 kts | 290° |
| 2026-04-14 14:42 | 34.72355 | 32.47310 | 43 ft | 22 kts | 290° |
| 2026-04-14 14:43 | 34.72361 | 32.47169 | 44 ft | 16 kts | 220° |
| 2026-04-14 14:43 | 34.72323 | 32.47146 | 44 ft | 0 kts | 200° |
| 2026-04-14 14:44 | 34.72322 | 32.47145 | 44 ft | 1 kts | 200° |
| 2026-04-14 14:44 | 34.72278 | 32.47125 | 43 ft | 12 kts | 196° |
| 2026-04-14 14:44 | 34.72226 | 32.47160 | 42 ft | 7 kts | 124° |
| 2026-04-14 14:45 | 34.72179 | 32.47297 | 44 ft | 44 kts | 110° |
| 2026-04-14 14:45 | 34.71966 | 32.48014 | 44 ft | 134 kts | 110° |
| 2026-04-14 14:45 | 34.71554 | 32.49366 | 211 ft | 196 kts | 110° |
| 2026-04-14 14:45 | 34.71051 | 32.50953 | 1266 ft | 205 kts | 110° |
| 2026-04-14 14:46 | 34.70534 | 32.52519 | 2593 ft | 202 kts | 109° |
| 2026-04-14 14:46 | 34.70041 | 32.54159 | 3379 ft | 210 kts | 108° |
| 2026-04-14 14:46 | 34.69352 | 32.55744 | 3967 ft | 220 kts | 134° |
| 2026-04-14 14:46 | 34.68008 | 32.56602 | 4704 ft | 221 kts | 168° |
| 2026-04-14 14:47 | 34.66470 | 32.56530 | 5382 ft | 228 kts | 196° |
| 2026-04-14 14:47 | 34.65110 | 32.55528 | 6007 ft | 234 kts | 225° |
| 2026-04-14 14:47 | 34.64312 | 32.53802 | 6646 ft | 240 kts | 257° |
| 2026-04-14 14:47 | 34.64446 | 32.51805 | 7242 ft | 241 kts | 295° |
| 2026-04-14 14:48 | 34.65211 | 32.50014 | 7952 ft | 239 kts | 297° |
| 2026-04-14 14:48 | 34.65938 | 32.48185 | 8595 ft | 241 kts | 296° |
| 2026-04-14 14:48 | 34.66662 | 32.46352 | 9300 ft | 241 kts | 296° |
| 2026-04-14 14:48 | 34.67396 | 32.44516 | 9978 ft | 241 kts | 296° |
| 2026-04-14 14:49 | 34.68132 | 32.42683 | 10613 ft | 241 kts | 296° |
| 2026-04-14 14:49 | 34.68869 | 32.40856 | 11236 ft | 241 kts | 296° |
| 2026-04-14 14:49 | 34.69608 | 32.39021 | 11840 ft | 242 kts | 295° |
| 2026-04-14 14:49 | 34.70275 | 32.37138 | 12427 ft | 244 kts | 282° |
| 2026-04-14 14:50 | 34.70321 | 32.35022 | 12700 ft | 261 kts | 266° |
| 2026-04-14 14:50 | 34.70177 | 32.32726 | 12873 ft | 285 kts | 266° |
| 2026-04-14 14:50 | 34.70041 | 32.30220 | 13091 ft | 309 kts | 267° |
| 2026-04-14 14:50 | 34.69900 | 32.27566 | 13275 ft | 331 kts | 267° |
| 2026-04-14 14:51 | 34.69749 | 32.24687 | 13521 ft | 350 kts | 267° |
| 2026-04-14 14:51 | 34.69592 | 32.21709 | 14101 ft | 356 kts | 267° |
| 2026-04-14 14:51 | 34.69434 | 32.18703 | 14872 ft | 355 kts | 267° |
| 2026-04-14 14:51 | 34.69276 | 32.15712 | 15638 ft | 355 kts | 267° |
| 2026-04-14 14:52 | 34.69117 | 32.12713 | 16352 ft | 356 kts | 267° |
| 2026-04-14 14:52 | 34.68957 | 32.09699 | 17053 ft | 358 kts | 267° |
| 2026-04-14 14:52 | 34.68796 | 32.06676 | 17742 ft | 360 kts | 267° |
| 2026-04-14 14:52 | 34.68634 | 32.03639 | 18440 ft | 361 kts | 267° |
| 2026-04-14 14:53 | 34.68470 | 32.00581 | 19002 ft | 364 kts | 267° |
| 2026-04-14 14:53 | 34.68303 | 31.97495 | 19501 ft | 368 kts | 267° |
| 2026-04-14 14:53 | 34.68134 | 31.94367 | 19996 ft | 372 kts | 267° |
| 2026-04-14 14:53 | 34.67988 | 31.91217 | 20534 ft | 375 kts | 271° |
| 2026-04-14 14:54 | 34.68379 | 31.88087 | 21020 ft | 378 kts | 287° |
| 2026-04-14 14:54 | 34.69270 | 31.85065 | 21559 ft | 381 kts | 289° |
| 2026-04-14 14:54 | 34.70163 | 31.82023 | 22034 ft | 384 kts | 289° |
| 2026-04-14 14:54 | 34.71050 | 31.78939 | 22497 ft | 388 kts | 288° |
| 2026-04-14 14:55 | 34.71937 | 31.75826 | 22948 ft | 392 kts | 288° |
| 2026-04-14 14:55 | 34.72828 | 31.72678 | 23425 ft | 395 kts | 288° |
| 2026-04-14 14:55 | 34.73722 | 31.69508 | 23850 ft | 398 kts | 288° |
| 2026-04-14 14:55 | 34.74621 | 31.66312 | 24247 ft | 400 kts | 288° |
| 2026-04-14 14:56 | 34.76412 | 31.59933 | 25147 ft | 402 kts | 288° |
| 2026-04-14 14:56 | 34.77315 | 31.56711 | 25580 ft | 403 kts | 288° |
| 2026-04-14 14:56 | 34.78219 | 31.53484 | 25986 ft | 404 kts | 288° |
| 2026-04-14 14:57 | 34.79125 | 31.50246 | 26390 ft | 405 kts | 288° |
| 2026-04-14 14:57 | 34.80033 | 31.46995 | 26778 ft | 406 kts | 288° |
| 2026-04-14 14:57 | 34.80944 | 31.43731 | 27169 ft | 408 kts | 288° |
| 2026-04-14 14:57 | 34.81858 | 31.40455 | 27552 ft | 409 kts | 288° |
| 2026-04-14 14:58 | 34.82772 | 31.37172 | 27928 ft | 410 kts | 288° |
| 2026-04-14 14:58 | 34.83687 | 31.33881 | 28292 ft | 411 kts | 289° |
| 2026-04-14 14:58 | 34.84604 | 31.30579 | 28646 ft | 412 kts | 289° |
| 2026-04-14 14:58 | 34.85522 | 31.27271 | 28985 ft | 414 kts | 289° |
| 2026-04-14 14:59 | 34.86442 | 31.23953 | 29328 ft | 415 kts | 289° |
| 2026-04-14 14:59 | 34.87366 | 31.20615 | 29667 ft | 416 kts | 289° |
| 2026-04-14 14:59 | 34.88289 | 31.17276 | 30017 ft | 416 kts | 289° |
| 2026-04-14 14:59 | 34.89208 | 31.13948 | 30434 ft | 414 kts | 289° |
| 2026-04-14 15:00 | 34.90122 | 31.10633 | 30926 ft | 410 kts | 289° |
| 2026-04-14 15:00 | 34.91023 | 31.07361 | 31420 ft | 405 kts | 289° |
| 2026-04-14 15:00 | 34.91912 | 31.04129 | 31861 ft | 401 kts | 289° |
| 2026-04-14 15:00 | 34.92796 | 31.00913 | 32238 ft | 400 kts | 288° |
| 2026-04-14 15:01 | 34.93676 | 30.97707 | 32608 ft | 398 kts | 288° |
| 2026-04-14 15:01 | 34.94550 | 30.94517 | 33018 ft | 395 kts | 288° |
| 2026-04-14 15:01 | 34.95414 | 30.91363 | 33435 ft | 392 kts | 288° |
| 2026-04-14 15:01 | 34.96278 | 30.88206 | 33803 ft | 390 kts | 288° |
| 2026-04-14 15:02 | 34.97132 | 30.85079 | 34179 ft | 388 kts | 288° |
| 2026-04-14 15:02 | 34.97981 | 30.81969 | 34495 ft | 385 kts | 288° |
| 2026-04-14 15:02 | 34.98813 | 30.78916 | 34816 ft | 383 kts | 288° |
| 2026-04-14 15:02 | 34.99651 | 30.75840 | 35150 ft | 380 kts | 288° |
| 2026-04-14 15:03 | 35.00482 | 30.72786 | 35397 ft | 380 kts | 288° |
| 2026-04-14 15:03 | 35.01315 | 30.69719 | 35576 ft | 381 kts | 288° |
| 2026-04-14 15:03 | 35.02148 | 30.66648 | 35755 ft | 382 kts | 288° |
| 2026-04-14 15:03 | 35.02979 | 30.63581 | 35984 ft | 381 kts | 288° |
| 2026-04-14 15:04 | 35.03811 | 30.60508 | 36172 ft | 381 kts | 288° |
| 2026-04-14 15:04 | 35.04644 | 30.57427 | 36162 ft | 382 kts | 288° |
| 2026-04-14 15:04 | 35.06303 | 30.51284 | 36170 ft | 379 kts | 288° |
| 2026-04-14 15:05 | 35.07942 | 30.45199 | 36165 ft | 376 kts | 288° |
| 2026-04-14 15:05 | 35.09569 | 30.39146 | 36169 ft | 374 kts | 288° |
| 2026-04-14 15:06 | 35.11187 | 30.33112 | 36173 ft | 373 kts | 288° |
| 2026-04-14 15:06 | 35.12792 | 30.27111 | 36174 ft | 374 kts | 287° |
| 2026-04-14 15:07 | 35.14404 | 30.21072 | 36176 ft | 375 kts | 287° |
| 2026-04-14 15:07 | 35.16019 | 30.15007 | 36182 ft | 376 kts | 287° |
| 2026-04-14 15:08 | 35.17638 | 30.08916 | 36184 ft | 378 kts | 287° |
| 2026-04-14 15:08 | 35.19275 | 30.02802 | 36180 ft | 379 kts | 290° |
| 2026-04-14 15:09 | 35.21724 | 29.97077 | 36183 ft | 384 kts | 302° |
| 2026-04-14 15:09 | 35.24959 | 29.91849 | 36185 ft | 385 kts | 303° |
| 2026-04-14 15:10 | 35.28173 | 29.86592 | 36184 ft | 385 kts | 303° |
| 2026-04-14 15:10 | 35.31350 | 29.81366 | 36191 ft | 385 kts | 302° |
| 2026-04-14 15:11 | 35.34546 | 29.76098 | 36187 ft | 385 kts | 302° |
| 2026-04-14 15:11 | 35.37730 | 29.70842 | 36191 ft | 384 kts | 302° |
| 2026-04-14 15:12 | 35.40911 | 29.65583 | 36190 ft | 383 kts | 302° |
| 2026-04-14 15:12 | 35.44078 | 29.60341 | 36193 ft | 382 kts | 302° |
| 2026-04-14 15:13 | 35.47242 | 29.55095 | 36193 ft | 382 kts | 302° |
| 2026-04-14 15:13 | 35.50392 | 29.49865 | 36197 ft | 381 kts | 302° |
| 2026-04-14 15:14 | 35.53538 | 29.44633 | 36197 ft | 381 kts | 302° |
| 2026-04-14 15:14 | 35.56683 | 29.39395 | 36195 ft | 381 kts | 302° |
| 2026-04-14 15:15 | 35.59818 | 29.34164 | 36196 ft | 381 kts | 302° |
| 2026-04-14 15:15 | 35.62960 | 29.28916 | 36197 ft | 381 kts | 301° |
| 2026-04-14 15:16 | 35.66080 | 29.23697 | 36196 ft | 381 kts | 301° |
| 2026-04-14 15:16 | 35.69219 | 29.18437 | 36194 ft | 382 kts | 301° |
| 2026-04-14 15:17 | 35.72365 | 29.13157 | 36194 ft | 383 kts | 301° |
| 2026-04-14 15:17 | 35.75513 | 29.07867 | 36195 ft | 383 kts | 301° |
| 2026-04-14 15:18 | 35.78130 | 29.03462 | 36194 ft | 384 kts | 301° |
| 2026-04-14 15:18 | 35.81282 | 28.98151 | 36196 ft | 384 kts | 301° |
| 2026-04-14 15:19 | 35.84431 | 28.92834 | 36193 ft | 385 kts | 301° |
| 2026-04-14 15:19 | 35.87588 | 28.87497 | 36193 ft | 385 kts | 301° |
| 2026-04-14 15:20 | 35.90740 | 28.82159 | 36192 ft | 385 kts | 301° |
| 2026-04-14 15:20 | 35.93895 | 28.76809 | 36188 ft | 386 kts | 301° |
| 2026-04-14 15:21 | 35.97060 | 28.71446 | 36193 ft | 386 kts | 301° |
| 2026-04-14 15:21 | 36.00203 | 28.66127 | 36192 ft | 386 kts | 301° |
| 2026-04-14 15:22 | 36.03366 | 28.60765 | 36189 ft | 386 kts | 301° |
| 2026-04-14 15:22 | 36.06513 | 28.55419 | 36188 ft | 386 kts | 301° |
| 2026-04-14 15:23 | 36.09670 | 28.50049 | 36188 ft | 386 kts | 301° |
| 2026-04-14 15:23 | 36.12775 | 28.44758 | 36185 ft | 386 kts | 301° |
| 2026-04-14 15:24 | 36.14747 | 28.41387 | 36187 ft | 386 kts | 300° |
| 2026-04-14 15:24 | 36.17887 | 28.35996 | 36186 ft | 386 kts | 300° |
| 2026-04-14 15:25 | 36.21007 | 28.30632 | 36187 ft | 386 kts | 300° |
| 2026-04-14 15:25 | 36.24137 | 28.25242 | 36185 ft | 386 kts | 300° |
| 2026-04-14 15:26 | 36.27271 | 28.19836 | 36186 ft | 386 kts | 300° |
| 2026-04-14 15:26 | 36.30406 | 28.14422 | 36191 ft | 386 kts | 300° |
| 2026-04-14 15:27 | 36.33518 | 28.08999 | 36182 ft | 384 kts | 297° |
| 2026-04-14 15:27 | 36.35851 | 28.03117 | 36193 ft | 379 kts | 289° |
| 2026-04-14 15:28 | 36.37982 | 27.97128 | 36185 ft | 380 kts | 290° |
| 2026-04-14 15:28 | 36.40141 | 27.91137 | 36184 ft | 380 kts | 290° |
| 2026-04-14 15:29 | 36.42296 | 27.85138 | 36182 ft | 380 kts | 290° |
| 2026-04-14 15:29 | 36.44447 | 27.79130 | 36183 ft | 381 kts | 289° |
| 2026-04-14 15:30 | 36.46554 | 27.73234 | 36182 ft | 381 kts | 289° |
| 2026-04-14 15:30 | 36.48698 | 27.67206 | 36181 ft | 382 kts | 289° |
| 2026-04-14 15:31 | 36.50844 | 27.61155 | 36179 ft | 382 kts | 289° |
| 2026-04-14 15:31 | 36.52823 | 27.55563 | 36182 ft | 382 kts | 289° |
| 2026-04-14 15:32 | 36.54965 | 27.49499 | 36184 ft | 383 kts | 289° |
| 2026-04-14 15:32 | 36.57103 | 27.43435 | 36181 ft | 383 kts | 289° |
| 2026-04-14 15:33 | 36.59239 | 27.37365 | 36183 ft | 383 kts | 289° |
| 2026-04-14 15:33 | 36.61373 | 27.31292 | 36184 ft | 383 kts | 289° |
| 2026-04-14 15:34 | 36.63504 | 27.25211 | 36185 ft | 383 kts | 289° |
| 2026-04-14 15:34 | 36.65619 | 27.19165 | 36179 ft | 383 kts | 288° |
| 2026-04-14 15:35 | 36.67742 | 27.13086 | 36171 ft | 383 kts | 288° |
| 2026-04-14 15:35 | 36.69856 | 27.07006 | 36192 ft | 382 kts | 288° |
| 2026-04-14 15:36 | 36.71964 | 27.00927 | 36185 ft | 383 kts | 288° |
| 2026-04-14 15:36 | 36.74072 | 26.94836 | 36183 ft | 382 kts | 288° |
| 2026-04-14 15:37 | 36.76178 | 26.88737 | 36182 ft | 383 kts | 288° |
| 2026-04-14 15:37 | 36.78284 | 26.82629 | 36184 ft | 383 kts | 288° |
| 2026-04-14 15:38 | 36.80390 | 26.76508 | 36182 ft | 384 kts | 288° |
| 2026-04-14 15:38 | 36.82498 | 26.70367 | 36181 ft | 384 kts | 288° |
| 2026-04-14 15:39 | 36.84604 | 26.64233 | 36183 ft | 385 kts | 288° |
| 2026-04-14 15:39 | 36.86702 | 26.58123 | 36177 ft | 385 kts | 288° |
| 2026-04-14 15:40 | 36.88810 | 26.51968 | 36180 ft | 386 kts | 288° |
| 2026-04-14 15:40 | 36.90914 | 26.45797 | 36179 ft | 386 kts | 288° |
| 2026-04-14 15:41 | 36.93018 | 26.39607 | 36185 ft | 387 kts | 288° |
| 2026-04-14 15:41 | 36.95121 | 26.33409 | 36182 ft | 387 kts | 288° |
| 2026-04-14 15:42 | 36.97220 | 26.27211 | 36182 ft | 387 kts | 288° |
| 2026-04-14 15:42 | 36.99322 | 26.21007 | 36179 ft | 388 kts | 288° |
| 2026-04-14 15:43 | 37.01433 | 26.14794 | 36181 ft | 388 kts | 288° |
| 2026-04-14 15:43 | 37.03538 | 26.08584 | 36181 ft | 388 kts | 287° |
| 2026-04-14 15:44 | 37.05627 | 26.02405 | 36183 ft | 388 kts | 287° |
| 2026-04-14 15:44 | 37.07724 | 25.96189 | 36182 ft | 388 kts | 287° |
| 2026-04-14 15:45 | 37.09824 | 25.89950 | 36180 ft | 389 kts | 287° |
| 2026-04-14 15:45 | 37.11882 | 25.83822 | 36174 ft | 385 kts | 287° |
| 2026-04-14 15:46 | 37.12911 | 25.80766 | 35878 ft | 379 kts | 287° |
| 2026-04-14 15:46 | 37.13923 | 25.77749 | 35441 ft | 373 kts | 287° |
| 2026-04-14 15:46 | 37.14929 | 25.74741 | 34895 ft | 373 kts | 287° |
| 2026-04-14 15:46 | 37.15932 | 25.71734 | 34399 ft | 375 kts | 287° |
| 2026-04-14 15:47 | 37.17954 | 25.65670 | 34178 ft | 372 kts | 287° |
| 2026-04-14 15:47 | 37.18936 | 25.62736 | 34158 ft | 358 kts | 287° |
| 2026-04-14 15:47 | 37.19881 | 25.59907 | 34137 ft | 345 kts | 287° |
| 2026-04-14 15:48 | 37.20755 | 25.57176 | 34130 ft | 330 kts | 284° |
| 2026-04-14 15:48 | 37.21596 | 25.54553 | 34128 ft | 319 kts | 287° |
| 2026-04-14 15:48 | 37.22443 | 25.52081 | 34134 ft | 307 kts | 287° |
| 2026-04-14 15:48 | 37.23291 | 25.49581 | 34155 ft | 309 kts | 286° |
| 2026-04-14 15:49 | 37.24947 | 25.44490 | 34164 ft | 325 kts | 286° |
| 2026-04-14 15:49 | 37.26676 | 25.39148 | 34168 ft | 333 kts | 286° |
| 2026-04-14 15:50 | 37.28334 | 25.33763 | 34153 ft | 324 kts | 283° |
| 2026-04-14 15:50 | 37.29749 | 25.28437 | 34177 ft | 321 kts | 282° |
| 2026-04-14 15:51 | 37.31160 | 25.23078 | 34171 ft | 324 kts | 282° |